This is the latest recevied weather packets stored in our database for station/object AA7F. If no packets are shown the sender has not sent any weather packets the latest 10 day(s).
| Time | Temp. | Humidity | Pressure | Rain* | Wind** | Luminosity | Snow |
|---|---|---|---|---|---|---|---|
| 1777872221 | 15° C | 55% | 1008.2 hPa | 0 mm | - | 0 W/m² | - |
| 1777871918 | 15° C | 55% | 1008 hPa | 0 mm | - | 0 W/m² | - |
| 1777871614 | 15° C | 57% | 1008.4 hPa | 0 mm | - | 0 W/m² | - |
| 1777871311 | 15.56° C | 55% | 1008.2 hPa | 0 mm | - | 0 W/m² | - |
| 1777871008 | 15.56° C | 53% | 1008.1 hPa | 0 mm | - | 0 W/m² | - |
| 1777870705 | 15.56° C | 54% | 1008.2 hPa | 0 mm | - | 0 W/m² | - |
| 1777870400 | 15.56° C | 53% | 1008.1 hPa | 0 mm | - | 0 W/m² | - |
| 1777870098 | 15.56° C | 53% | 1008.3 hPa | 0 mm | - | 0 W/m² | - |
| 1777869795 | 16.11° C | 53% | 1008.2 hPa | 0 mm | - | 0 W/m² | - |
| 1777869492 | 16.67° C | 49% | 1007.9 hPa | 0 mm | - | 0 W/m² | - |
| 1777869189 | 17.22° C | 48% | 1008.3 hPa | 0 mm | - | 0 W/m² | - |
| 1777868886 | 17.78° C | 45% | 1008 hPa | 0 mm | - | 0 W/m² | - |
| 1777868583 | 18.89° C | 43% | 1007.9 hPa | 0 mm | - | 0 W/m² | - |
| 1777868279 | 17.78° C | 46% | 1008.1 hPa | 0 mm | - | 0 W/m² | - |
| 1777867975 | 17.78° C | 46% | 1008.1 hPa | 0 mm | - | 0 W/m² | - |
| 1777867671 | 18.33° C | 45% | 1008 hPa | 0 mm | - | 0 W/m² | - |
| 1777867369 | 18.89° C | 43% | 1007.9 hPa | 0 mm | - | 0 W/m² | - |
| 1777867065 | 19.44° C | 43% | 1008 hPa | 0 mm | - | 0 W/m² | - |
| 1777866762 | 20.56° C | 40% | 1007.9 hPa | 0 mm | - | 0 W/m² | - |
| 1777866460 | 20.56° C | 38% | 1008 hPa | 0 mm | - | 0 W/m² | - |
| 1777866157 | 20.56° C | 38% | 1007.8 hPa | 0 mm | - | 0 W/m² | - |
| 1777865854 | 20.56° C | 37% | 1007.8 hPa | 0 mm | - | 0 W/m² | - |
| 1777865552 | 20.56° C | 40% | 1008 hPa | 0 mm | - | 0 W/m² | - |
| 1777864642 | 21.11° C | 38% | 1007.6 hPa | 0 mm | - | 0 W/m² | - |
| 1777843429 | 25.56° C | 38% | 1010.2 hPa | 0 mm | - | 636 W/m² | - |
* Rain latest hour (hover to see other rain measurements)
** Current wind speed in m/s (hover to see current wind gust speed)